Bursledon, United Kingdom
Current Conditions -  °F | °C
As of 10:50 PM on Saturday 25 Oct 2014 (Local Time) from EGHI Reporting Station
Broken Clouds Broken Clouds  
Wind Chill: 54°   Ceiling: 3600
Heat Index: 54°   Visibility: 6mi
Dew Point: 45°   Wind: 7mph
Humidity: 72%   Direction: 230°SW
Pressure: 30.18"   Gusts: NA
Location:  50.89°N, 1.32°W
Report Text: EGHI 252150Z 23006KT 9999 BKN036 12/07 Q1022
Loading
Personal Weather Stations






























Interactive Weather Map
Tropical Storm Tracking
New forecast layout! Learn more

10-Day Weather Forecast

Advertisements
Track Severe Weather on mobile